Time;durP1;ratioP1;P1;durP2;ratioP2;P2;SDS_P1;SDS_P2;PMS_P1;PMS_P2;Temp;Humidity;BMP_temperature;BMP_pressure;BME280_temperature;BME280_humidity;BME280_pressure;Samples;Min_cycle;Max_cycle;Signal;HPM_P1;HPM_P2
2021/01/16 00:01:42;;;;;;;1.15;0.90;;;20.50;39.00;;;;;;6219932;28;20110;-58
2021/01/16 00:04:42;;;;;;;1.33;1.10;;;20.40;38.90;;;;;;6220042;28;20041;-58
2021/01/16 00:07:44;;;;;;;1.02;0.88;;;20.40;39.00;;;;;;6219489;28;20072;-60
2021/01/16 00:10:50;;;;;;;1.25;0.90;;;20.40;39.00;;;;;;6242367;28;20505;-60
2021/01/16 00:13:50;;;;;;;1.35;1.10;;;20.40;39.00;;;;;;6232184;28;20041;-59
2021/01/16 00:16:52;;;;;;;0.73;0.60;;;20.40;39.20;;;;;;6219980;28;20088;-57
2021/01/16 00:19:52;;;;;;;1.27;1.02;;;20.40;39.10;;;;;;6219170;28;20038;-59
2021/01/16 00:22:53;;;;;;;1.25;0.93;;;20.40;39.00;;;;;;6219677;28;20038;-60
2021/01/16 00:25:54;;;;;;;1.20;0.80;;;20.40;39.10;;;;;;6219816;28;20584;-60
2021/01/16 00:28:54;;;;;;;0.85;0.73;;;20.40;39.20;;;;;;6218146;28;20033;-58
2021/01/16 00:31:55;;;;;;;0.90;0.80;;;20.40;39.10;;;;;;6218275;28;20454;-59
2021/01/16 00:34:55;;;;;;;1.40;1.08;;;20.40;39.10;;;;;;6219327;28;20078;-59
2021/01/16 00:37:56;;;;;;;1.83;1.00;;;20.40;39.10;;;;;;6219204;28;20401;-59
2021/01/16 00:40:57;;;;;;;0.90;0.80;;;20.40;39.20;;;;;;6219319;28;20060;-60
2021/01/16 00:43:58;;;;;;;1.55;1.00;;;20.40;39.20;;;;;;6219217;28;20065;-60
2021/01/16 00:46:58;;;;;;;1.13;1.00;;;20.40;39.30;;;;;;6218104;28;20038;-59
2021/01/16 00:49:59;;;;;;;1.35;0.93;;;20.40;39.20;;;;;;6219124;28;20058;-56
2021/01/16 00:53:00;;;;;;;1.13;0.85;;;20.40;39.30;;;;;;6217987;28;20084;-59
2021/01/16 00:56:01;;;;;;;1.50;1.05;;;20.40;39.30;;;;;;6217944;28;20164;-57
2021/01/16 00:59:02;;;;;;;0.85;0.80;;;20.40;39.30;;;;;;6218824;28;20029;-57
2021/01/16 01:02:02;;;;;;;1.40;1.00;;;20.40;39.40;;;;;;6219520;28;20038;-60
2021/01/16 01:05:03;;;;;;;1.45;1.08;;;20.40;39.40;;;;;;6219128;28;20040;-59
2021/01/16 01:08:04;;;;;;;1.17;0.85;;;20.40;39.50;;;;;;6221466;28;20466;-59
2021/01/16 01:11:05;;;;;;;1.20;0.90;;;20.40;39.40;;;;;;6222930;28;20034;-60
2021/01/16 01:14:05;;;;;;;1.30;0.90;;;20.40;39.50;;;;;;6218702;28;20046;-58
2021/01/16 01:17:16;;;;;;;1.27;1.10;;;20.30;39.30;;;;;;6219542;28;20034;-60
2021/01/16 01:20:17;;;;;;;1.52;0.90;;;20.30;39.30;;;;;;6220194;28;20037;-59
2021/01/16 01:23:17;;;;;;;1.35;1.05;;;20.40;39.50;;;;;;6223622;28;20398;-60
2021/01/16 01:26:18;;;;;;;1.30;1.00;;;20.30;39.40;;;;;;6223733;28;20032;-58
2021/01/16 01:29:18;;;;;;;4.40;0.90;;;20.30;39.50;;;;;;6223211;28;20560;-59
2021/01/16 01:32:19;;;;;;;1.15;0.88;;;20.30;39.50;;;;;;6223772;28;20033;-60
2021/01/16 01:35:20;;;;;;;1.08;0.80;;;20.40;39.50;;;;;;6223390;28;20066;-59
2021/01/16 01:38:21;;;;;;;1.35;1.00;;;20.40;39.50;;;;;;6223579;28;20534;-60
2021/01/16 01:41:22;;;;;;;1.30;1.10;;;20.40;39.50;;;;;;6223111;28;20041;-56
2021/01/16 01:44:23;;;;;;;1.00;0.77;;;20.30;39.50;;;;;;6222992;28;20029;-59
2021/01/16 01:47:23;;;;;;;1.33;0.90;;;20.30;39.50;;;;;;6221980;28;20057;-60
2021/01/16 01:50:24;;;;;;;1.05;0.80;;;20.30;39.50;;;;;;6222812;28;20034;-60
2021/01/16 01:53:26;;;;;;;1.00;0.80;;;20.30;39.60;;;;;;6221832;28;20406;-58
2021/01/16 01:56:28;;;;;;;1.05;0.80;;;20.30;39.50;;;;;;6222768;28;20022;-57
2021/01/16 01:59:34;;;;;;;1.13;0.77;;;20.30;39.60;;;;;;6222932;28;20033;-59
2021/01/16 02:02:36;;;;;;;0.80;0.70;;;20.40;39.70;;;;;;6222814;28;20109;-59
2021/01/16 02:05:37;;;;;;;1.00;0.90;;;20.30;39.60;;;;;;6223201;28;20030;-59
2021/01/16 02:08:37;;;;;;;1.08;0.98;;;20.30;39.80;;;;;;6228444;28;20108;-57
2021/01/16 02:11:38;;;;;;;0.90;0.80;;;20.30;39.60;;;;;;6230517;28;20037;-60
2021/01/16 02:14:41;;;;;;;0.98;0.80;;;20.30;39.60;;;;;;6222615;28;20426;-57
2021/01/16 02:17:43;;;;;;;1.02;0.80;;;20.30;39.70;;;;;;6222282;28;20037;-59
2021/01/16 02:20:46;;;;;;;0.88;0.80;;;20.30;39.70;;;;;;6222428;28;20502;-60
2021/01/16 02:24:09;;;;;;;0.70;0.70;;;20.30;39.70;;;;;;6221026;28;20053;-58
2021/01/16 02:27:35;;;;;;;0.80;0.80;;;20.30;39.60;;;;;;6222509;28;20584;-58
2021/01/16 02:30:38;;;;;;;1.15;0.85;;;20.30;39.70;;;;;;6222165;28;20022;-58
2021/01/16 02:33:41;;;;;;;1.42;0.95;;;20.30;39.70;;;;;;6221222;28;20133;-60
2021/01/16 02:36:57;;;;;;;1.85;1.02;;;20.30;39.90;;;;;;6221926;28;20116;-59
2021/01/16 02:40:26;;;;;;;;;;;20.30;39.80;;;;;;6222486;28;20041;-58
2021/01/16 02:43:43;;;;;;;0.93;0.80;;;20.30;39.80;;;;;;6213027;28;19920;-57
2021/01/16 02:46:57;;;;;;;0.88;0.80;;;20.20;39.70;;;;;;6221792;28;20033;-61
2021/01/16 02:50:20;;;;;;;1.00;0.85;;;20.30;39.80;;;;;;6221805;28;20034;-56
2021/01/16 02:53:23;;;;;;;1.05;0.95;;;20.20;39.70;;;;;;6221694;28;20033;-58
2021/01/16 02:56:28;;;;;;;0.98;0.88;;;20.20;39.70;;;;;;6221875;28;20022;-56
2021/01/16 02:59:33;;;;;;;1.42;1.05;;;20.30;39.80;;;;;;6219992;28;20056;-60
2021/01/16 03:02:34;;;;;;;1.92;1.20;;;20.20;39.60;;;;;;6221444;28;20072;-55
2021/01/16 03:05:35;;;;;;;0.90;0.80;;;20.30;39.70;;;;;;6221514;28;20030;-59
2021/01/16 03:08:35;;;;;;;0.77;0.70;;;20.30;39.80;;;;;;6227910;28;20477;-60
2021/01/16 03:11:36;;;;;;;0.88;0.70;;;20.20;39.70;;;;;;6227670;28;20049;-60
2021/01/16 03:14:51;;;;;;;0.70;0.70;;;20.20;39.80;;;;;;6221437;28;20042;-56
2021/01/16 03:17:53;;;;;;;1.00;0.90;;;20.20;39.70;;;;;;6221422;28;20077;-59
2021/01/16 03:20:58;;;;;;;1.15;0.93;;;20.20;39.80;;;;;;6221226;28;20036;-60
2021/01/16 03:23:59;;;;;;;0.80;0.80;;;20.20;39.70;;;;;;6221095;28;20115;-58
2021/01/16 03:26:59;;;;;;;0.93;0.77;;;20.20;39.90;;;;;;6220846;28;20494;-58
2021/01/16 03:30:00;;;;;;;1.67;1.05;;;20.20;39.70;;;;;;6220862;28;20061;-57
2021/01/16 03:33:00;;;;;;;1.08;0.80;;;20.20;39.80;;;;;;6221201;28;20060;-59
2021/01/16 03:36:01;;;;;;;1.08;0.73;;;20.20;39.80;;;;;;6220711;28;20072;-60
2021/01/16 03:39:01;;;;;;;1.00;0.90;;;20.20;39.70;;;;;;6220471;28;20034;-59
2021/01/16 03:42:02;;;;;;;1.23;0.80;;;20.20;39.90;;;;;;6220579;28;20044;-58
2021/01/16 03:45:09;;;;;;;0.82;0.73;;;20.20;40.00;;;;;;6220414;28;20025;-59
2021/01/16 03:48:10;;;;;;;1.10;1.00;;;20.20;39.90;;;;;;6220477;28;20414;-60
2021/01/16 03:51:10;;;;;;;1.35;0.80;;;20.20;39.90;;;;;;6220175;28;20065;-61
2021/01/16 03:54:11;;;;;;;0.98;0.88;;;20.20;40.00;;;;;;6220111;28;20040;-59
2021/01/16 03:57:11;;;;;;;0.88;0.82;;;20.20;40.00;;;;;;6220215;28;20026;-60
2021/01/16 04:00:12;;;;;;;1.30;0.90;;;20.20;40.00;;;;;;6220214;28;20033;-59
2021/01/16 04:03:13;;;;;;;1.35;1.00;;;20.20;39.90;;;;;;6219794;28;20026;-58
2021/01/16 04:06:17;;;;;;;1.20;0.98;;;20.20;39.90;;;;;;6220023;28;20038;-58
2021/01/16 04:09:18;;;;;;;1.33;0.90;;;20.20;40.00;;;;;;6232811;28;20029;-59
2021/01/16 04:12:18;;;;;;;1.35;0.80;;;20.20;39.90;;;;;;6240872;28;20044;-56
2021/01/16 04:15:19;;;;;;;1.00;0.88;;;20.20;40.00;;;;;;6218667;28;20483;-58
2021/01/16 04:18:19;;;;;;;0.95;0.73;;;20.20;40.00;;;;;;6219492;28;20041;-56
2021/01/16 04:21:20;;;;;;;0.80;0.70;;;20.20;40.00;;;;;;6219702;28;20045;-58
2021/01/16 04:24:21;;;;;;;0.80;0.80;;;20.20;40.00;;;;;;6218146;28;20121;-59
2021/01/16 04:27:22;;;;;;;1.40;0.68;;;20.10;40.00;;;;;;6219617;28;20046;-59
2021/01/16 04:30:22;;;;;;;1.10;0.95;;;20.10;40.00;;;;;;6219550;28;20040;-60
2021/01/16 04:33:23;;;;;;;0.95;0.80;;;20.10;39.90;;;;;;6219446;28;20041;-57
2021/01/16 04:36:23;;;;;;;1.05;0.80;;;20.10;40.00;;;;;;6219494;28;20053;-59
2021/01/16 04:39:24;;;;;;;0.73;0.70;;;20.10;40.10;;;;;;6218886;28;20317;-59
2021/01/16 04:42:26;;;;;;;1.00;0.90;;;20.10;40.10;;;;;;6219727;28;20033;-56
2021/01/16 04:45:27;;;;;;;1.17;0.90;;;20.10;40.20;;;;;;6219129;28;20034;-60
2021/01/16 04:48:29;;;;;;;1.17;0.90;;;20.10;40.20;;;;;;6219347;28;20026;-55
2021/01/16 04:51:35;;;;;;;1.15;0.82;;;20.10;40.90;;;;;;6218952;28;20034;-60
2021/01/16 04:54:36;;;;;;;1.15;0.90;;;20.10;40.10;;;;;;6218650;28;20459;-57
2021/01/16 04:57:38;;;;;;;1.13;0.90;;;20.10;40.20;;;;;;6219680;28;20025;-58
2021/01/16 05:00:42;;;;;;;1.30;1.08;;;20.10;40.20;;;;;;6219162;28;20116;-57
2021/01/16 05:03:42;;;;;;;1.08;0.90;;;20.10;40.00;;;;;;6218283;28;20056;-60
2021/01/16 05:06:46;;;;;;;0.90;0.80;;;20.10;40.10;;;;;;6219281;28;20026;-59
2021/01/16 05:09:47;;;;;;;1.13;0.90;;;20.10;40.10;;;;;;6221065;28;20041;-60
2021/01/16 05:13:02;;;;;;;0.85;0.85;;;20.10;40.20;;;;;;6218947;28;20037;-60
2021/01/16 05:16:06;;;;;;;1.70;1.17;;;20.10;40.30;;;;;;6218873;28;20105;-60
2021/01/16 05:19:11;;;;;;;0.65;0.65;;;20.10;40.30;;;;;;6219301;28;20227;-60
2021/01/16 05:22:12;;;;;;;1.13;0.90;;;20.10;40.40;;;;;;6219137;28;20457;-59
2021/01/16 05:25:13;;;;;;;0.80;0.73;;;20.10;40.40;;;;;;6218955;28;20037;-58
2021/01/16 05:28:19;;;;;;;1.15;1.00;;;20.10;40.50;;;;;;6217682;28;20064;-60
2021/01/16 05:31:19;;;;;;;1.27;0.93;;;20.10;40.60;;;;;;6218435;28;20418;-60
2021/01/16 05:34:23;;;;;;;1.35;0.95;;;20.20;40.50;;;;;;6218797;28;20041;-61
2021/01/16 05:37:24;;;;;;;1.23;0.90;;;20.20;40.50;;;;;;6218944;28;20026;-58
2021/01/16 05:40:29;;;;;;;1.00;0.90;;;20.10;40.60;;;;;;6218570;28;20030;-55
2021/01/16 05:43:30;;;;;;;1.00;0.90;;;20.20;40.70;;;;;;6219156;28;20034;-58
2021/01/16 05:46:31;;;;;;;1.27;1.00;;;20.20;40.70;;;;;;6217331;28;20510;-59
2021/01/16 05:49:32;;;;;;;0.82;0.80;;;20.20;40.80;;;;;;6218360;28;20427;-58
2021/01/16 05:52:33;;;;;;;1.00;0.88;;;20.20;40.70;;;;;;6218651;28;20160;-60
2021/01/16 05:55:34;;;;;;;1.40;1.10;;;20.20;40.70;;;;;;6218764;28;20041;-60
2021/01/16 05:58:35;;;;;;;0.80;0.80;;;20.20;40.70;;;;;;6218607;28;20045;-55
2021/01/16 06:01:37;;;;;;;1.10;0.80;;;20.20;40.70;;;;;;6218395;28;20104;-58
2021/01/16 06:04:46;;;;;;;1.08;0.90;;;20.20;40.80;;;;;;6217035;28;20084;-59
2021/01/16 06:07:46;;;;;;;1.00;0.80;;;20.20;40.80;;;;;;6220778;28;20036;-58
2021/01/16 06:10:54;;;;;;;1.20;0.90;;;20.20;40.80;;;;;;6233117;28;20037;-60
2021/01/16 06:14:01;;;;;;;0.98;0.88;;;20.20;40.80;;;;;;6223346;28;20589;-61
2021/01/16 06:17:04;;;;;;;1.00;0.90;;;20.20;40.90;;;;;;6223404;28;20505;-59
2021/01/16 06:20:07;;;;;;;1.10;0.90;;;20.20;40.80;;;;;;6223170;28;20048;-60
2021/01/16 06:23:12;;;;;;;0.80;0.80;;;20.20;40.90;;;;;;6222234;28;20033;-59
2021/01/16 06:26:15;;;;;;;1.13;0.70;;;20.20;40.90;;;;;;6222507;28;20454;-59
2021/01/16 06:29:35;;;;;;;1.25;0.90;;;20.20;40.80;;;;;;6222381;28;20034;-60
2021/01/16 06:32:46;;;;;;;1.10;0.98;;;20.20;40.90;;;;;;6222116;28;20065;-57
2021/01/16 06:35:55;;;;;;;0.88;0.85;;;20.20;41.00;;;;;;6221960;28;20087;-60
2021/01/16 06:39:00;;;;;;;0.90;0.80;;;20.20;40.90;;;;;;6222152;28;20037;-58
2021/01/16 06:42:12;;;;;;;0.93;0.82;;;20.20;41.00;;;;;;6221913;28;20287;-60
2021/01/16 06:45:13;;;;;;;1.08;0.80;;;20.20;41.00;;;;;;6220710;28;20045;-57
2021/01/16 06:48:14;;;;;;;0.70;0.60;;;20.20;40.90;;;;;;6222008;28;20065;-59
2021/01/16 06:51:24;;;;;;;1.30;1.10;;;20.20;41.00;;;;;;6221695;28;20379;-60
2021/01/16 06:54:32;;;;;;;1.70;1.02;;;20.20;40.90;;;;;;6221996;28;20033;-60
2021/01/16 06:57:34;;;;;;;1.20;0.80;;;20.20;41.00;;;;;;6221887;28;20042;-59
2021/01/16 07:00:34;;;;;;;0.75;0.75;;;20.20;41.00;;;;;;6221898;28;20088;-59
2021/01/16 07:03:47;;;;;;;1.05;0.95;;;20.20;40.90;;;;;;6221956;28;20041;-59
2021/01/16 07:06:49;;;;;;;1.08;0.85;;;20.20;41.00;;;;;;6221287;28;20065;-59
2021/01/16 07:09:50;;;;;;;0.90;0.82;;;20.20;40.90;;;;;;6236476;28;20069;-60
2021/01/16 07:12:52;;;;;;;0.95;0.82;;;20.20;41.00;;;;;;6224961;28;20049;-59
2021/01/16 07:15:53;;;;;;;1.17;0.80;;;20.20;40.90;;;;;;6221515;28;20029;-60
2021/01/16 07:18:55;;;;;;;1.05;0.95;;;20.20;41.00;;;;;;6219363;28;20042;-60
2021/01/16 07:21:57;;;;;;;1.35;0.98;;;20.10;41.00;;;;;;6219623;28;20502;-59
2021/01/16 07:25:03;;;;;;;1.50;0.88;;;20.10;40.90;;;;;;6221418;28;20058;-58
2021/01/16 07:28:04;;;;;;;1.17;0.90;;;20.10;41.00;;;;;;6220964;28;20030;-57
2021/01/16 07:31:05;;;;;;;1.00;0.90;;;20.20;41.00;;;;;;6220958;28;20022;-59
2021/01/16 07:34:09;;;;;;;1.52;0.80;;;20.10;41.00;;;;;;6221107;28;20037;-59
2021/01/16 07:37:10;;;;;;;1.20;0.93;;;20.10;40.90;;;;;;6220879;28;20026;-60
2021/01/16 07:40:15;;;;;;;0.93;0.70;;;20.10;41.00;;;;;;6221082;28;20089;-58
2021/01/16 07:43:46;;;;;;;0.98;0.88;;;20.10;41.00;;;;;;6221159;28;20427;-60
2021/01/16 07:46:52;;;;;;;1.40;1.20;;;20.20;41.00;;;;;;6220828;28;20104;-61
2021/01/16 07:49:57;;;;;;;1.10;1.00;;;20.20;41.00;;;;;;6219585;28;20037;-60
2021/01/16 07:53:05;;;;;;;1.08;0.98;;;20.10;41.10;;;;;;6222154;28;20038;-58
2021/01/16 07:56:21;;;;;;;1.10;1.00;;;20.10;41.10;;;;;;6220899;28;20026;-60
2021/01/16 07:59:29;;;;;;;1.05;0.80;;;20.10;41.10;;;;;;6221105;28;20030;-60
2021/01/16 08:02:32;;;;;;;1.00;0.85;;;20.20;41.00;;;;;;6220623;28;20041;-60
2021/01/16 08:05:44;;;;;;;1.60;1.20;;;20.10;41.80;;;;;;6220291;28;20017;-59
2021/01/16 08:08:52;;;;;;;1.25;0.90;;;20.10;41.00;;;;;;6228119;28;20604;-60
2021/01/16 08:12:00;;;;;;;1.20;1.00;;;20.10;41.10;;;;;;6238496;28;20604;-59
2021/01/16 08:15:02;;;;;;;1.33;0.82;;;20.10;41.10;;;;;;6219899;28;20566;-60
2021/01/16 08:18:04;;;;;;;1.23;0.90;;;20.10;41.10;;;;;;6219229;28;20057;-58
2021/01/16 08:21:08;;;;;;;1.00;0.80;;;20.10;41.10;;;;;;6219715;28;20494;-58
2021/01/16 08:24:18;;;;;;;1.00;0.88;;;20.20;41.20;;;;;;6220334;28;20022;-56
2021/01/16 08:27:22;;;;;;;1.15;0.95;;;20.20;41.10;;;;;;6219848;28;20056;-60
2021/01/16 08:30:31;;;;;;;1.10;0.90;;;20.20;41.20;;;;;;6218922;28;20121;-58
2021/01/16 08:33:34;;;;;;;0.88;0.77;;;20.20;41.10;;;;;;6219254;28;20553;-58
2021/01/16 08:36:34;;;;;;;0.70;0.70;;;20.10;41.20;;;;;;6219645;28;20034;-60
2021/01/16 08:39:42;;;;;;;1.90;1.15;;;20.10;41.20;;;;;;6218128;28;20025;-59
2021/01/16 08:42:51;;;;;;;0.98;0.88;;;20.10;41.10;;;;;;6219936;28;20030;-51
2021/01/16 08:46:05;;;;;;;1.05;0.95;;;20.10;41.20;;;;;;6219767;28;20549;-55
2021/01/16 08:49:09;;;;;;;1.35;0.90;;;20.20;41.20;;;;;;6220062;28;20064;-51
2021/01/16 08:52:10;;;;;;;1.10;1.00;;;20.20;41.20;;;;;;6219533;28;20037;-56
2021/01/16 08:55:10;;;;;;;1.13;1.02;;;20.10;41.20;;;;;;6219484;28;20648;-53
2021/01/16 08:58:11;;;;;;;0.70;0.70;;;20.10;41.20;;;;;;6219706;28;20105;-55
2021/01/16 09:01:12;;;;;;;1.05;0.77;;;20.20;41.20;;;;;;6219573;28;20104;-54
2021/01/16 09:04:21;;;;;;;1.23;0.90;;;20.10;41.20;;;;;;6219349;28;20242;-58
2021/01/16 09:07:23;;;;;;;1.08;0.98;;;20.20;41.30;;;;;;6219363;28;20037;-54
2021/01/16 09:10:25;;;;;;;0.80;0.70;;;20.10;41.20;;;;;;6219774;28;20053;-51
2021/01/16 09:13:30;;;;;;;1.55;1.00;;;20.10;41.20;;;;;;6225984;28;20033;-54
2021/01/16 09:16:33;;;;;;;1.20;0.93;;;20.20;41.20;;;;;;6243594;28;20083;-54
2021/01/16 09:19:35;;;;;;;1.10;0.90;;;20.30;40.90;;;;;;6228555;28;20109;-53
2021/01/16 09:22:36;;;;;;;1.17;1.00;;;20.40;40.70;;;;;;6219036;28;20113;-58
2021/01/16 09:25:40;;;;;;;1.20;0.95;;;20.50;40.70;;;;;;6219145;28;20034;-54
2021/01/16 09:28:54;;;;;;;1.60;1.20;;;20.60;40.70;;;;;;6219092;28;20025;-52
2021/01/16 09:31:55;;;;;;;0.67;0.67;;;20.60;40.60;;;;;;6217906;28;20044;-53
2021/01/16 09:34:57;;;;;;;1.23;0.88;;;20.70;40.60;;;;;;6219151;28;20026;-52
2021/01/16 09:38:02;;;;;;;1.13;0.98;;;20.70;40.50;;;;;;6219169;28;20113;-56
2021/01/16 09:41:02;;;;;;;;;;;20.80;40.60;;;;;;6221869;28;20105;-54
2021/01/16 09:44:03;;;;;;;0.98;0.75;;;20.80;40.50;;;;;;6223935;28;19909;-54
2021/01/16 09:47:05;;;;;;;1.40;0.80;;;20.90;40.50;;;;;;6223543;28;20529;-52
2021/01/16 09:50:11;;;;;;;0.98;0.77;;;20.90;40.50;;;;;;6223178;28;20391;-57
2021/01/16 09:53:18;;;;;;;1.60;0.80;;;20.90;40.50;;;;;;6223115;28;20064;-55
2021/01/16 09:56:39;;;;;;;1.00;0.90;;;21.00;40.40;;;;;;6198865;28;20044;-55
2021/01/16 09:59:40;;;;;;;0.80;0.70;;;21.00;40.40;;;;;;6209219;28;20033;-55
2021/01/16 10:02:47;;;;;;;1.00;0.85;;;21.00;40.40;;;;;;6221897;28;20037;-54
2021/01/16 10:05:50;;;;;;;1.00;0.90;;;21.00;40.30;;;;;;6223114;28;20022;-56
2021/01/16 10:08:51;;;;;;;0.98;0.90;;;21.00;40.20;;;;;;6229558;28;20034;-52
2021/01/16 10:11:51;;;;;;;1.20;0.90;;;21.00;40.20;;;;;;6222803;28;20030;-57
2021/01/16 10:14:52;;;;;;;0.88;0.77;;;21.10;40.10;;;;;;6222710;28;20022;-54
2021/01/16 10:17:55;;;;;;;1.88;0.90;;;21.10;40.10;;;;;;6222782;28;20494;-52
2021/01/16 10:21:02;;;;;;;1.95;0.90;;;21.10;40.10;;;;;;6222334;28;20026;-52
2021/01/16 10:24:17;;;;;;;1.80;1.05;;;21.10;40.20;;;;;;6222640;28;20026;-51
2021/01/16 10:27:43;;;;;;;1.33;0.80;;;21.10;40.20;;;;;;6222787;28;20509;-54
2021/01/16 10:31:01;;;;;;;2.15;1.20;;;21.10;40.10;;;;;;6221959;28;20034;-55
2021/01/16 10:34:10;;;;;;;1.45;1.10;;;21.10;39.90;;;;;;6222820;28;20116;-54
2021/01/16 10:37:12;;;;;;;1.73;1.30;;;21.10;39.90;;;;;;6197922;28;20085;-55
2021/01/16 10:40:13;;;;;;;3.88;1.20;;;21.10;39.90;;;;;;6212999;28;20103;-53
2021/01/16 10:43:13;;;;;;;4.10;1.42;;;21.10;39.90;;;;;;6246579;28;20041;-53
2021/01/16 10:46:32;;;;;;;1.75;0.80;;;21.10;39.80;;;;;;6231156;28;20057;-58
2021/01/16 10:49:49;;;;;;;1.63;1.10;;;21.10;39.80;;;;;;6221575;28;20030;-59
2021/01/16 10:53:04;;;;;;;0.93;0.82;;;21.10;39.80;;;;;;6220965;28;20498;-58
2021/01/16 10:56:13;;;;;;;1.17;0.98;;;21.10;39.80;;;;;;6221515;28;20025;-59
2021/01/16 10:59:14;;;;;;;1.27;0.82;;;21.10;39.80;;;;;;6221492;28;20038;-59
2021/01/16 11:02:16;;;;;;;1.25;1.00;;;21.10;39.80;;;;;;6221667;28;20089;-59
2021/01/16 11:05:20;;;;;;;1.92;1.30;;;21.10;39.80;;;;;;6221290;28;20021;-59
2021/01/16 11:08:30;;;;;;;3.78;0.88;;;21.10;39.80;;;;;;6226293;28;20017;-59
2021/01/16 11:11:30;;;;;;;1.00;0.88;;;21.10;39.70;;;;;;6231842;28;20509;-59
2021/01/16 11:14:35;;;;;;;1.13;0.85;;;21.10;39.70;;;;;;6221839;28;20038;-60
2021/01/16 11:17:53;;;;;;;;;;;21.10;39.70;;;;;;6221502;28;20438;-55
2021/01/16 11:20:59;;;;;;;1.10;1.00;;;21.10;39.70;;;;;;6221120;28;19947;-59
2021/01/16 11:24:22;;;;;;;1.23;0.90;;;21.10;39.60;;;;;;6221518;28;20033;-59
2021/01/16 11:27:26;;;;;;;2.58;1.10;;;21.10;39.60;;;;;;6215319;28;20401;-60
2021/01/16 11:30:31;;;;;;;1.30;1.00;;;21.10;39.60;;;;;;6221311;28;20653;-59
2021/01/16 11:33:32;;;;;;;;;;;21.10;39.70;;;;;;6220901;28;20324;-56
2021/01/16 11:36:34;;;;;;;0.80;0.80;;;21.10;39.60;;;;;;6220778;28;19912;-58
2021/01/16 11:39:50;;;;;;;1.27;0.90;;;21.00;39.70;;;;;;6220412;28;20022;-56
2021/01/16 11:43:01;;;;;;;1.00;0.80;;;21.00;39.80;;;;;;6220859;28;20025;-58
2021/01/16 11:46:10;;;;;;;1.20;1.00;;;21.00;39.70;;;;;;6220313;28;20040;-57
2021/01/16 11:49:13;;;;;;;0.80;0.80;;;21.00;40.10;;;;;;6220163;28;20030;-59
2021/01/16 11:52:14;;;;;;;1.23;1.00;;;21.00;40.10;;;;;;6220229;28;20037;-59
2021/01/16 11:55:16;;;;;;;1.10;0.80;;;21.00;40.00;;;;;;6220190;28;20042;-59
2021/01/16 11:58:16;;;;;;;11.15;2.10;;;21.00;40.10;;;;;;6216152;28;20113;-59
2021/01/16 12:01:17;;;;;;;16.25;1.48;;;20.90;39.70;;;;;;6220423;28;20022;-57
2021/01/16 12:04:18;;;;;;;6.57;1.27;;;21.00;39.40;;;;;;6218703;28;20442;-62
2021/01/16 12:07:19;;;;;;;5.18;1.05;;;21.10;39.30;;;;;;6225021;28;20034;-54
2021/01/16 12:10:22;;;;;;;14.68;1.38;;;21.10;39.20;;;;;;6218182;28;20021;-60
2021/01/16 12:13:22;;;;;;;6.35;0.90;;;21.20;39.30;;;;;;6230912;28;20087;-61
2021/01/16 12:16:23;;;;;;;10.50;1.50;;;21.20;39.70;;;;;;6231541;28;20037;-56
2021/01/16 12:19:25;;;;;;;9.35;1.15;;;21.20;39.40;;;;;;6218383;28;20021;-59
2021/01/16 12:22:29;;;;;;;2.42;1.08;;;21.20;39.60;;;;;;6220175;28;20116;-58
2021/01/16 12:25:30;;;;;;;12.38;1.42;;;21.20;40.10;;;;;;6227447;28;20081;-56
2021/01/16 12:28:33;;;;;;;9.00;1.10;;;21.20;39.60;;;;;;6218759;28;20025;-53
2021/01/16 12:31:34;;;;;;;5.45;1.15;;;21.30;39.80;;;;;;6234662;28;20044;-50
2021/01/16 12:34:54;;;;;;;2.35;0.88;;;21.20;39.50;;;;;;6221427;28;20196;-50
2021/01/16 12:37:55;;;;;;;4.18;1.15;;;21.20;39.50;;;;;;6220088;28;20396;-51
2021/01/16 12:40:55;;;;;;;8.88;1.45;;;21.20;39.50;;;;;;6232671;28;20041;-49
2021/01/16 12:43:56;;;;;;;3.70;1.15;;;21.20;39.60;;;;;;6232729;28;20622;-54
2021/01/16 12:46:57;;;;;;;5.80;1.38;;;21.10;39.40;;;;;;6234894;28;20041;-61
2021/01/16 12:49:58;;;;;;;14.70;1.48;;;21.10;39.40;;;;;;6220135;28;20048;-54
2021/01/16 12:52:58;;;;;;;13.23;1.30;;;21.20;39.70;;;;;;6221995;28;20033;-54
2021/01/16 12:56:00;;;;;;;1.73;0.98;;;21.10;39.20;;;;;;6227323;28;20075;-53
2021/01/16 12:59:00;;;;;;;6.15;1.30;;;21.20;39.20;;;;;;6229666;28;20025;-51
2021/01/16 13:02:01;;;;;;;6.10;1.42;;;21.20;39.30;;;;;;6235181;28;20050;-53
2021/01/16 13:05:05;;;;;;;13.02;1.92;;;21.20;39.30;;;;;;6237795;28;20069;-54
2021/01/16 13:08:13;;;;;;;5.47;1.05;;;21.10;39.10;;;;;;6233143;28;20502;-53
2021/01/16 13:11:15;;;;;;;1.80;1.20;;;21.20;39.00;;;;;;6227772;28;20053;-54
2021/01/16 13:14:16;;;;;;;10.07;1.60;;;21.20;39.40;;;;;;6218371;28;20061;-56
2021/01/16 13:17:21;;;;;;;9.10;1.35;;;21.30;39.70;;;;;;6222326;28;20555;-50
2021/01/16 13:20:21;;;;;;;18.42;1.40;;;21.30;39.80;;;;;;6241733;28;20034;-54
2021/01/16 13:23:44;;;;;;;4.22;1.05;;;21.30;39.30;;;;;;6222481;28;20027;-51
2021/01/16 13:26:44;;;;;;;9.10;1.63;;;21.30;39.50;;;;;;6222376;28;20514;-51
2021/01/16 13:29:53;;;;;;;5.65;1.42;;;21.20;39.40;;;;;;6228652;28;20037;-56
2021/01/16 13:32:54;;;;;;;4.03;1.13;;;21.20;39.40;;;;;;6222450;28;20038;-54
2021/01/16 13:35:55;;;;;;;4.93;1.08;;;21.20;39.50;;;;;;6221256;28;20060;-54
2021/01/16 13:38:57;;;;;;;7.00;1.17;;;21.30;40.00;;;;;;6236281;28;20490;-54
2021/01/16 13:41:57;;;;;;;8.93;1.40;;;21.30;39.30;;;;;;6222452;28;20030;-53
2021/01/16 13:45:07;;;;;;;2.75;1.10;;;21.20;39.40;;;;;;6222311;28;20030;-53
2021/01/16 13:48:08;;;;;;;2.67;0.95;;;21.20;39.40;;;;;;6221600;28;20555;-55
2021/01/16 13:51:32;;;;;;;4.38;1.00;;;21.20;39.60;;;;;;6222225;28;20319;-53
2021/01/16 13:54:35;;;;;;;1.17;0.80;;;21.20;39.50;;;;;;6222550;28;20041;-53
2021/01/16 13:57:36;;;;;;;4.93;1.20;;;21.20;39.50;;;;;;6222309;28;20018;-53
2021/01/16 14:00:49;;;;;;;1.77;1.10;;;21.20;39.50;;;;;;6223076;28;20053;-55
2021/01/16 14:03:50;;;;;;;4.90;1.10;;;21.20;39.50;;;;;;6225857;28;20466;-55
2021/01/16 14:07:01;;;;;;;1.38;0.85;;;21.20;39.50;;;;;;6222429;28;20018;-52
2021/01/16 14:10:01;;;;;;;2.78;0.90;;;21.20;39.50;;;;;;6221758;28;20037;-53
2021/01/16 14:13:08;;;;;;;1.85;0.98;;;21.20;39.50;;;;;;6222094;28;20034;-54
2021/01/16 14:16:10;;;;;;;2.15;1.17;;;21.20;39.50;;;;;;6221725;28;20026;-51
2021/01/16 14:19:14;;;;;;;6.22;1.15;;;21.30;40.20;;;;;;6221282;28;20026;-56
2021/01/16 14:22:15;;;;;;;4.03;1.13;;;21.20;39.50;;;;;;6224628;28;20033;-54
2021/01/16 14:25:35;;;;;;;7.30;1.05;;;21.20;39.60;;;;;;6221073;28;20319;-55
2021/01/16 14:28:37;;;;;;;3.05;1.05;;;21.30;39.90;;;;;;6222718;28;20379;-52
2021/01/16 14:31:46;;;;;;;24.38;1.38;;;21.30;39.70;;;;;;6221226;28;20444;-56
2021/01/16 14:34:47;;;;;;;8.07;1.00;;;21.30;39.90;;;;;;6231441;28;20494;-57
2021/01/16 14:37:58;;;;;;;8.75;1.20;;;21.40;39.70;;;;;;6242652;28;20096;-54
2021/01/16 14:40:58;;;;;;;1.90;1.02;;;21.30;39.60;;;;;;6245998;28;20033;-53
2021/01/16 14:44:00;;;;;;;3.67;1.23;;;21.30;39.70;;;;;;6225344;28;20033;-50
2021/01/16 14:47:02;;;;;;;3.17;1.00;;;21.30;39.70;;;;;;6242263;28;20491;-56
2021/01/16 14:50:09;;;;;;;28.35;1.70;;;21.30;39.80;;;;;;6240163;28;20021;-56
2021/01/16 14:53:21;;;;;;;19.63;1.38;;;21.30;39.90;;;;;;6230841;28;20025;-54
2021/01/16 14:56:21;;;;;;;14.95;1.75;;;21.30;39.80;;;;;;6224547;28;20418;-59
2021/01/16 14:59:22;;;;;;;12.85;2.15;;;21.30;39.90;;;;;;6222826;28;20098;-56
2021/01/16 15:02:23;;;;;;;8.25;1.50;;;21.20;39.70;;;;;;6224578;28;20352;-51
2021/01/16 15:05:33;;;;;;;13.25;1.63;;;21.20;39.80;;;;;;6235398;28;20037;-52
2021/01/16 15:08:50;;;;;;;9.18;1.48;;;21.20;39.80;;;;;;6221705;28;20056;-54
2021/01/16 15:11:55;;;;;;;3.67;1.10;;;21.20;39.80;;;;;;6221051;28;20108;-59
2021/01/16 15:14:56;;;;;;;;;;;21.20;39.90;;;;;;6223891;28;20034;-52
2021/01/16 15:18:02;;;;;;;7.10;1.20;;;21.30;40.60;;;;;;6238814;28;20294;-52
2021/01/16 15:21:03;;;;;;;6.10;1.63;;;21.30;39.90;;;;;;6220092;28;20036;-55
2021/01/16 15:24:04;;;;;;;6.13;1.35;;;21.20;39.90;;;;;;6220540;28;20368;-52
2021/01/16 15:27:05;;;;;;;6.75;1.40;;;21.20;40.20;;;;;;6239592;28;20034;-52
2021/01/16 15:30:06;;;;;;;5.43;1.20;;;21.30;40.10;;;;;;6227506;28;20030;-55
2021/01/16 15:33:08;;;;;;;15.18;1.27;;;21.20;40.20;;;;;;6219630;28;20400;-53
2021/01/16 15:36:11;;;;;;;6.97;1.42;;;21.20;40.30;;;;;;6220025;28;20065;-51
2021/01/16 15:39:11;;;;;;;2.05;1.13;;;21.10;40.30;;;;;;6218719;28;20038;-53
2021/01/16 15:42:23;;;;;;;3.70;1.10;;;21.10;40.20;;;;;;6220214;28;20127;-56
2021/01/16 15:45:24;;;;;;;2.65;0.90;;;21.10;40.30;;;;;;6219208;28;20079;-56
2021/01/16 15:48:25;;;;;;;1.45;1.05;;;21.10;40.40;;;;;;6218996;28;20026;-56
2021/01/16 15:51:31;;;;;;;2.85;1.30;;;21.10;40.30;;;;;;6218582;28;20034;-51
2021/01/16 15:54:31;;;;;;;9.57;1.40;;;21.00;39.60;;;;;;6232627;28;20029;-54
2021/01/16 15:57:34;;;;;;;5.40;1.30;;;21.00;39.80;;;;;;6225198;28;20064;-54
2021/01/16 16:00:38;;;;;;;5.25;1.35;;;21.00;39.60;;;;;;6218885;28;20030;-56